createdAt,value
2019-05-26T00:01:57.475Z,13.90
2019-05-26T00:04:28.195Z,13.90
2019-05-26T00:06:58.038Z,13.90
2019-05-26T00:09:27.854Z,13.80
2019-05-26T00:11:57.768Z,13.80
2019-05-26T00:14:27.740Z,13.80
2019-05-26T00:16:57.515Z,13.80
2019-05-26T00:19:27.310Z,13.80
2019-05-26T00:21:57.123Z,13.80
2019-05-26T00:24:27.036Z,13.80
2019-05-26T00:26:56.795Z,13.90
2019-05-26T00:29:26.680Z,13.80
2019-05-26T00:31:56.631Z,13.80
2019-05-26T00:34:26.559Z,13.90
2019-05-26T00:36:56.491Z,13.80
2019-05-26T00:39:27.735Z,13.80
2019-05-26T00:41:57.715Z,13.90
2019-05-26T00:44:27.578Z,13.80
2019-05-26T00:46:58.575Z,13.80
2019-05-26T00:49:28.422Z,13.80
2019-05-26T00:51:58.295Z,13.90
2019-05-26T00:54:28.277Z,13.90
2019-05-26T00:56:58.155Z,13.90
2019-05-26T00:59:27.915Z,13.80
2019-05-26T01:01:57.841Z,13.80
2019-05-26T01:04:27.582Z,13.80
2019-05-26T01:06:57.495Z,13.80
2019-05-26T01:09:27.334Z,13.80
2019-05-26T01:11:57.179Z,13.80
2019-05-26T01:14:27.040Z,13.80
2019-05-26T01:16:56.670Z,13.80
2019-05-26T01:19:26.534Z,13.80
2019-05-26T01:21:56.302Z,13.80
2019-05-26T01:24:26.059Z,13.80
2019-05-26T01:26:55.830Z,13.80
2019-05-26T01:29:25.677Z,13.80
2019-05-26T01:31:55.588Z,13.80
2019-05-26T01:34:25.580Z,13.80
2019-05-26T01:36:55.842Z,13.80
2019-05-26T01:39:25.792Z,13.80
2019-05-26T01:41:55.565Z,13.90
2019-05-26T01:44:25.443Z,13.90
2019-05-26T01:46:55.317Z,13.90
2019-05-26T01:49:38.108Z,13.90
2019-05-26T01:52:08.020Z,13.90
2019-05-26T01:54:40.772Z,13.80
2019-05-26T01:57:09.266Z,13.90
2019-05-26T01:59:39.626Z,13.80
2019-05-26T02:02:09.552Z,13.80
2019-05-26T02:04:39.327Z,13.80
2019-05-26T02:07:09.167Z,13.80
2019-05-26T02:09:38.959Z,13.90
2019-05-26T02:12:09.139Z,13.80
2019-05-26T02:14:38.937Z,13.80
2019-05-26T02:17:08.935Z,13.80
2019-05-26T02:19:38.803Z,13.70
2019-05-26T02:22:09.754Z,13.80
2019-05-26T02:24:39.527Z,13.80
2019-05-26T02:27:09.282Z,13.80
2019-05-26T02:29:39.047Z,13.80
2019-05-26T02:32:08.893Z,13.80
2019-05-26T02:34:38.867Z,13.80
2019-05-26T02:37:08.661Z,13.90
2019-05-26T02:39:38.412Z,13.90
2019-05-26T02:42:08.292Z,13.90
2019-05-26T02:44:38.181Z,13.90
2019-05-26T02:47:08.054Z,13.90
2019-05-26T02:49:37.852Z,13.90
2019-05-26T02:52:07.691Z,13.90
2019-05-26T02:54:37.342Z,13.90
2019-05-26T02:57:07.267Z,13.80
2019-05-26T02:59:37.055Z,13.90
2019-05-26T03:02:06.972Z,13.90
2019-05-26T03:04:36.959Z,13.90
2019-05-26T03:07:06.888Z,14.00
2019-05-26T03:09:38.869Z,13.90
2019-05-26T03:12:08.845Z,13.90
2019-05-26T03:14:41.553Z,13.90
2019-05-26T03:17:11.409Z,13.90
2019-05-26T03:19:42.155Z,13.90
2019-05-26T03:22:15.122Z,13.90
2019-05-26T03:24:47.643Z,13.90
2019-05-26T03:27:17.488Z,13.90
2019-05-26T03:29:47.359Z,13.90
2019-05-26T03:32:17.241Z,13.90
2019-05-26T03:34:47.057Z,14.00
2019-05-26T03:37:16.916Z,14.00
2019-05-26T03:39:46.796Z,13.90
2019-05-26T03:42:16.717Z,13.90
2019-05-26T03:44:46.502Z,13.90
2019-05-26T03:47:17.031Z,13.90
2019-05-26T03:49:47.128Z,14.00
2019-05-26T03:52:16.967Z,14.00
2019-05-26T03:54:46.854Z,14.10
2019-05-26T03:57:16.767Z,14.00
2019-05-26T03:59:46.555Z,14.10
2019-05-26T04:02:16.418Z,14.10
2019-05-26T04:04:46.211Z,14.10
2019-05-26T04:07:16.017Z,14.10
2019-05-26T04:10:03.165Z,14.10
2019-05-26T04:12:17.001Z,14.10
2019-05-26T04:14:46.745Z,14.10
2019-05-26T04:17:17.622Z,14.10
2019-05-26T04:19:47.569Z,14.10
2019-05-26T04:22:17.373Z,14.10
2019-05-26T04:24:47.273Z,14.20
2019-05-26T04:27:16.946Z,14.20
2019-05-26T04:29:46.695Z,14.20
2019-05-26T04:32:16.469Z,14.20
2019-05-26T04:34:46.252Z,14.20
2019-05-26T04:37:16.153Z,14.20
2019-05-26T04:39:45.909Z,14.20
2019-05-26T04:42:15.760Z,14.20
2019-05-26T04:44:45.545Z,14.20
2019-05-26T04:47:15.449Z,14.30
2019-05-26T04:49:45.395Z,14.30
2019-05-26T04:52:15.307Z,14.30
2019-05-26T04:54:45.102Z,14.30
2019-05-26T04:57:14.951Z,14.30
2019-05-26T04:59:44.753Z,14.40
2019-05-26T05:02:14.669Z,14.30
2019-05-26T05:04:44.405Z,14.40
2019-05-26T05:07:14.767Z,14.40
2019-05-26T05:09:44.595Z,14.40
2019-05-26T05:12:14.583Z,14.40
2019-05-26T05:14:44.437Z,14.40
2019-05-26T05:17:14.279Z,14.50
2019-05-26T05:19:44.010Z,14.50
2019-05-26T05:22:13.819Z,14.50
2019-05-26T05:24:43.591Z,14.50
2019-05-26T05:27:13.415Z,14.50
2019-05-26T05:29:43.459Z,14.50
2019-05-26T05:32:13.225Z,14.60
2019-05-26T05:34:42.799Z,14.60
2019-05-26T05:37:13.245Z,14.60
2019-05-26T05:39:43.072Z,14.60
2019-05-26T05:42:14.017Z,14.60
2019-05-26T05:44:43.639Z,14.60
2019-05-26T05:47:13.469Z,14.60
2019-05-26T05:49:43.375Z,14.70
2019-05-26T05:52:13.119Z,14.80
2019-05-26T05:54:43.031Z,14.80
2019-05-26T05:57:12.819Z,14.80
2019-05-26T05:59:42.671Z,14.80
2019-05-26T06:02:12.542Z,14.90
2019-05-26T06:04:42.388Z,15.00
2019-05-26T06:07:12.263Z,15.00
2019-05-26T06:09:42.040Z,15.00
2019-05-26T06:12:11.963Z,15.00
2019-05-26T06:14:41.609Z,15.10
2019-05-26T06:17:11.492Z,15.20
2019-05-26T06:19:41.209Z,15.20
2019-05-26T06:22:11.077Z,15.30
2019-05-26T06:24:40.812Z,15.40
2019-05-26T06:27:10.660Z,15.40
2019-05-26T06:29:40.409Z,15.40
2019-05-26T06:32:10.424Z,15.50
2019-05-26T06:34:40.342Z,15.60
2019-05-26T06:37:10.112Z,15.60
2019-05-26T06:39:39.915Z,15.80
2019-05-26T06:42:12.828Z,15.80
2019-05-26T06:44:53.147Z,15.80
2019-05-26T06:47:12.528Z,15.80
2019-05-26T06:49:42.380Z,15.90
2019-05-26T06:52:12.214Z,15.90
2019-05-26T06:54:44.190Z,15.90
2019-05-26T06:57:16.250Z,16.00
2019-05-26T06:59:45.879Z,16.00
2019-05-26T07:02:15.496Z,16.00
2019-05-26T07:04:45.134Z,16.10
2019-05-26T07:07:14.941Z,16.20
2019-05-26T07:09:44.674Z,16.30
2019-05-26T07:12:14.588Z,16.50
2019-05-26T07:14:44.440Z,16.60
2019-05-26T07:17:14.235Z,16.60
2019-05-26T07:19:44.076Z,16.70
2019-05-26T07:22:13.824Z,16.70
2019-05-26T07:24:43.579Z,16.70
2019-05-26T07:27:13.327Z,16.70
2019-05-26T07:29:43.132Z,16.90
2019-05-26T07:32:12.904Z,17.00
2019-05-26T07:34:42.751Z,17.20
2019-05-26T07:37:12.628Z,17.30
2019-05-26T07:39:42.275Z,17.40
2019-05-26T07:42:12.085Z,17.50
2019-05-26T07:44:41.924Z,17.50
2019-05-26T07:47:12.277Z,17.50
2019-05-26T07:49:42.116Z,17.40
2019-05-26T07:52:11.957Z,17.30
2019-05-26T07:54:41.861Z,17.30
2019-05-26T07:57:11.578Z,17.30
2019-05-26T07:59:41.453Z,17.20
2019-05-26T08:02:11.263Z,17.30
2019-05-26T08:04:41.080Z,17.40
2019-05-26T08:07:10.918Z,17.40
2019-05-26T08:09:41.816Z,17.50
2019-05-26T08:12:24.967Z,17.50
2019-05-26T08:14:42.783Z,17.50
2019-05-26T08:17:12.564Z,17.40
2019-05-26T08:19:42.462Z,17.40
2019-05-26T08:22:12.370Z,17.40
2019-05-26T08:24:42.273Z,17.40
2019-05-26T08:27:12.158Z,17.30
2019-05-26T08:29:41.935Z,17.30
2019-05-26T08:32:13.291Z,17.20
2019-05-26T08:34:43.198Z,17.20
2019-05-26T08:37:14.106Z,17.20
2019-05-26T08:39:47.611Z,17.20
2019-05-26T08:42:26.715Z,17.20
2019-05-26T08:44:46.793Z,17.20
2019-05-26T08:47:16.599Z,17.20
2019-05-26T08:49:46.374Z,17.30
2019-05-26T08:52:16.255Z,17.30
2019-05-26T08:54:46.002Z,17.30
2019-05-26T08:57:15.815Z,17.20
2019-05-26T08:59:45.611Z,17.10
2019-05-26T09:02:15.438Z,17.10
2019-05-26T09:04:45.158Z,17.10
2019-05-26T09:07:14.978Z,17.00
2019-05-26T09:09:44.788Z,17.00
2019-05-26T09:12:14.481Z,16.90
2019-05-26T09:14:44.240Z,16.90
2019-05-26T09:17:15.217Z,16.90
2019-05-26T09:19:45.054Z,16.80
2019-05-26T09:22:14.971Z,16.80
2019-05-26T09:24:44.779Z,16.80
2019-05-26T09:27:14.515Z,16.70
2019-05-26T09:29:44.307Z,16.70
2019-05-26T09:32:14.007Z,16.80
2019-05-26T09:34:43.815Z,16.80
2019-05-26T09:37:13.710Z,16.80
2019-05-26T09:39:43.543Z,16.80
2019-05-26T09:42:13.419Z,16.80
2019-05-26T09:44:43.324Z,16.70
2019-05-26T09:47:13.107Z,16.60
2019-05-26T09:49:42.976Z,16.60
2019-05-26T09:52:12.746Z,16.50
2019-05-26T09:54:42.566Z,16.50
2019-05-26T09:57:12.383Z,16.50
2019-05-26T09:59:42.231Z,16.50
2019-05-26T10:02:12.102Z,16.50
2019-05-26T10:04:41.835Z,16.50
2019-05-26T10:07:15.699Z,16.50
2019-05-26T10:09:43.203Z,16.50
2019-05-26T10:12:12.815Z,16.50
2019-05-26T10:14:42.656Z,16.50
2019-05-26T10:17:12.431Z,16.50
2019-05-26T10:19:42.385Z,16.50
2019-05-26T10:22:12.242Z,16.40
2019-05-26T10:24:41.954Z,16.40
2019-05-26T10:27:11.804Z,16.40
2019-05-26T10:29:42.771Z,16.30
2019-05-26T10:32:12.759Z,16.20
2019-05-26T10:34:42.548Z,16.20
2019-05-26T10:37:12.443Z,16.10
2019-05-26T10:39:45.059Z,16.10
2019-05-26T10:42:13.931Z,16.10
2019-05-26T10:44:43.672Z,16.00
2019-05-26T10:47:13.558Z,16.00
2019-05-26T10:49:43.455Z,16.00
2019-05-26T10:52:13.184Z,15.90
2019-05-26T10:54:42.847Z,15.90
2019-05-26T10:57:12.799Z,15.90
2019-05-26T10:59:42.557Z,15.90
2019-05-26T11:02:12.278Z,15.80
2019-05-26T11:04:42.056Z,15.80
2019-05-26T11:07:11.830Z,15.70
2019-05-26T11:09:41.668Z,15.60
2019-05-26T11:12:11.545Z,15.60
2019-05-26T11:14:41.372Z,15.60
2019-05-26T11:17:12.235Z,15.50
2019-05-26T11:19:42.035Z,15.50
2019-05-26T11:22:11.872Z,15.50
2019-05-26T11:24:41.679Z,15.50
2019-05-26T11:27:13.224Z,15.50
2019-05-26T11:29:43.023Z,15.50
2019-05-26T11:32:12.917Z,15.50
2019-05-26T11:34:42.767Z,15.40
2019-05-26T11:37:12.551Z,15.50
2019-05-26T11:39:42.388Z,15.40
2019-05-26T11:42:14.008Z,15.40
2019-05-26T11:44:43.580Z,15.30
2019-05-26T11:47:13.283Z,15.20
2019-05-26T11:49:42.996Z,15.20
2019-05-26T11:52:12.794Z,15.20
2019-05-26T11:54:42.556Z,15.10
2019-05-26T11:57:12.449Z,15.10
2019-05-26T11:59:42.248Z,15.10
2019-05-26T12:02:12.012Z,15.10
2019-05-26T12:04:41.656Z,15.00
2019-05-26T12:07:11.504Z,15.00
2019-05-26T12:09:41.403Z,15.00
2019-05-26T12:12:11.280Z,15.00
2019-05-26T12:14:41.099Z,15.00
2019-05-26T12:17:10.818Z,15.00
2019-05-26T12:19:40.592Z,15.00
2019-05-26T12:22:10.407Z,15.00
2019-05-26T12:24:40.055Z,15.00
2019-05-26T12:27:09.895Z,15.20
2019-05-26T12:29:39.631Z,15.30
2019-05-26T12:32:09.464Z,15.40
2019-05-26T12:34:39.325Z,15.50
2019-05-26T12:37:09.186Z,15.50
2019-05-26T12:39:38.970Z,15.60
2019-05-26T12:42:09.013Z,15.60
2019-05-26T12:44:49.056Z,15.60
2019-05-26T12:47:10.447Z,15.50
2019-05-26T12:49:40.138Z,15.50
2019-05-26T12:52:10.016Z,15.40
2019-05-26T12:54:39.799Z,15.40
2019-05-26T12:57:09.698Z,15.40
2019-05-26T12:59:39.527Z,15.30
2019-05-26T13:02:09.427Z,15.20
2019-05-26T13:04:39.234Z,15.20
2019-05-26T13:07:09.026Z,15.10
2019-05-26T13:09:38.883Z,15.10
2019-05-26T13:12:08.696Z,15.00
2019-05-26T13:14:38.687Z,15.00
2019-05-26T13:17:08.555Z,15.00
2019-05-26T13:19:38.398Z,15.00
2019-05-26T13:22:08.313Z,15.00
2019-05-26T13:24:38.155Z,15.00
2019-05-26T13:27:08.065Z,14.90
2019-05-26T13:29:37.798Z,14.80
2019-05-26T13:32:07.716Z,14.80
2019-05-26T13:34:37.584Z,14.80
2019-05-26T13:37:07.480Z,14.80
2019-05-26T13:39:37.156Z,14.70
2019-05-26T13:42:07.077Z,14.70
2019-05-26T13:44:36.952Z,14.70
2019-05-26T13:47:06.677Z,14.70
2019-05-26T13:49:36.420Z,14.80
2019-05-26T13:52:06.350Z,14.70
2019-05-26T13:54:36.161Z,14.80
2019-05-26T13:57:06.027Z,14.80
2019-05-26T13:59:35.763Z,14.80
2019-05-26T14:02:05.769Z,14.80
2019-05-26T14:04:35.605Z,14.80
2019-05-26T14:07:05.828Z,14.80
2019-05-26T14:09:35.701Z,14.80
2019-05-26T14:12:06.085Z,14.80
2019-05-26T14:14:36.093Z,14.80
2019-05-26T14:17:08.160Z,14.80
2019-05-26T14:19:38.123Z,14.80
2019-05-26T14:22:07.886Z,14.80
2019-05-26T14:24:50.871Z,14.80
2019-05-26T14:27:09.436Z,14.80
2019-05-26T14:29:39.188Z,14.80
2019-05-26T14:32:09.092Z,14.70
2019-05-26T14:34:38.794Z,14.70
2019-05-26T14:37:08.501Z,14.70
2019-05-26T14:39:38.115Z,14.60
2019-05-26T14:42:08.011Z,14.60
2019-05-26T14:44:39.530Z,14.50
2019-05-26T14:47:09.359Z,14.50
2019-05-26T14:49:40.113Z,14.50
2019-05-26T14:52:09.768Z,14.50
2019-05-26T14:54:39.659Z,14.50
2019-05-26T14:57:09.629Z,14.60
2019-05-26T14:59:39.885Z,14.60
2019-05-26T15:02:09.779Z,14.60
2019-05-26T15:04:39.579Z,14.50
2019-05-26T15:07:09.488Z,14.60
2019-05-26T15:09:40.292Z,14.50
2019-05-26T15:12:10.177Z,14.50
2019-05-26T15:14:40.115Z,14.50
2019-05-26T15:17:09.736Z,14.40
2019-05-26T15:19:39.459Z,14.40
2019-05-26T15:22:09.384Z,14.40
2019-05-26T15:24:39.246Z,14.50
2019-05-26T15:27:09.043Z,14.50
2019-05-26T15:29:39.884Z,14.50
2019-05-26T15:32:09.779Z,14.50
2019-05-26T15:34:39.525Z,14.50
2019-05-26T15:37:09.397Z,14.40
2019-05-26T15:39:39.196Z,14.40
2019-05-26T15:42:09.359Z,14.30
2019-05-26T15:44:39.208Z,14.30
2019-05-26T15:47:09.110Z,14.20
2019-05-26T15:49:38.867Z,14.20
2019-05-26T15:52:10.112Z,14.20
2019-05-26T15:54:39.847Z,14.10
2019-05-26T15:57:09.774Z,14.10
2019-05-26T15:59:39.653Z,14.00
2019-05-26T16:02:09.452Z,14.00
2019-05-26T16:04:39.264Z,14.00
2019-05-26T16:07:09.187Z,13.90
2019-05-26T16:09:38.960Z,13.90
2019-05-26T16:12:08.966Z,13.80
2019-05-26T16:14:38.563Z,13.90
2019-05-26T16:17:08.462Z,13.80
2019-05-26T16:19:38.262Z,13.80
2019-05-26T16:22:08.236Z,13.80
2019-05-26T16:24:38.111Z,13.80
2019-05-26T16:27:18.688Z,13.70
2019-05-26T16:29:40.113Z,13.70
2019-05-26T16:32:10.043Z,13.70
2019-05-26T16:34:39.949Z,13.60
2019-05-26T16:37:09.690Z,13.60
2019-05-26T16:39:39.555Z,13.60
2019-05-26T16:42:09.578Z,13.60
2019-05-26T16:44:39.501Z,13.60
2019-05-26T16:47:09.312Z,13.60
2019-05-26T16:49:39.145Z,13.60
2019-05-26T16:52:08.938Z,13.60
2019-05-26T16:54:38.917Z,13.50
2019-05-26T16:57:08.782Z,13.60
2019-05-26T16:59:38.536Z,13.60
2019-05-26T17:02:08.537Z,13.60
2019-05-26T17:04:38.375Z,13.60
2019-05-26T17:07:08.650Z,13.60
2019-05-26T17:09:38.513Z,13.60
2019-05-26T17:12:08.139Z,13.60
2019-05-26T17:14:37.948Z,13.60
2019-05-26T17:17:14.881Z,13.50
2019-05-26T17:19:39.356Z,13.50
2019-05-26T17:22:09.150Z,13.50
2019-05-26T17:24:38.892Z,13.50
2019-05-26T17:27:08.795Z,13.50
2019-05-26T17:29:38.692Z,13.50
2019-05-26T17:32:08.553Z,13.50
2019-05-26T17:34:38.397Z,13.50
2019-05-26T17:37:08.357Z,13.50
2019-05-26T17:39:38.137Z,13.50
2019-05-26T17:42:07.825Z,13.50
2019-05-26T17:44:37.648Z,13.50
2019-05-26T17:47:08.496Z,13.50
2019-05-26T17:49:38.328Z,13.50
2019-05-26T17:52:08.476Z,13.50
2019-05-26T17:54:38.411Z,13.40
2019-05-26T17:57:08.298Z,13.40
2019-05-26T17:59:38.181Z,13.40
2019-05-26T18:02:08.161Z,13.30
2019-05-26T18:04:38.114Z,13.30
2019-05-26T18:07:07.988Z,13.30
2019-05-26T18:09:44.029Z,13.30
2019-05-26T18:12:21.946Z,13.30
2019-05-26T18:14:51.824Z,13.30
2019-05-26T18:17:21.776Z,13.20
2019-05-26T18:19:51.551Z,13.20
2019-05-26T18:22:21.290Z,13.20
2019-05-26T18:24:55.795Z,13.20
2019-05-26T18:27:22.280Z,13.10
2019-05-26T18:29:52.153Z,13.10
2019-05-26T18:32:22.012Z,13.10
2019-05-26T18:34:51.943Z,13.10
2019-05-26T18:37:21.822Z,13.10
2019-05-26T18:39:52.188Z,13.00
2019-05-26T18:42:22.057Z,13.00
2019-05-26T18:44:51.848Z,13.00
2019-05-26T18:47:21.648Z,13.00
2019-05-26T18:49:51.484Z,13.00
2019-05-26T18:52:21.387Z,12.90
2019-05-26T18:54:51.349Z,12.90
2019-05-26T18:57:20.946Z,12.90
2019-05-26T18:59:50.652Z,12.80
2019-05-26T19:02:20.479Z,12.80
2019-05-26T19:04:50.344Z,12.80
2019-05-26T19:07:20.257Z,12.70
2019-05-26T19:09:49.947Z,12.70
2019-05-26T19:12:19.771Z,12.70
2019-05-26T19:14:49.612Z,12.60
2019-05-26T19:17:19.739Z,12.60
2019-05-26T19:19:49.596Z,12.60
2019-05-26T19:22:19.370Z,12.60
2019-05-26T19:24:49.122Z,12.60
2019-05-26T19:27:19.300Z,12.60
2019-05-26T19:29:48.993Z,12.60
2019-05-26T19:32:18.834Z,12.50
2019-05-26T19:34:48.709Z,12.50
2019-05-26T19:37:18.447Z,12.50
2019-05-26T19:39:48.194Z,12.50
2019-05-26T19:42:18.002Z,12.60
2019-05-26T19:44:47.844Z,12.50
2019-05-26T19:47:17.698Z,12.60
2019-05-26T19:49:47.512Z,12.60
2019-05-26T19:52:17.187Z,12.50
2019-05-26T19:54:47.103Z,12.50
2019-05-26T19:57:16.975Z,12.50
2019-05-26T19:59:46.719Z,12.60
2019-05-26T20:02:18.751Z,12.60
2019-05-26T20:04:48.095Z,12.60
2019-05-26T20:07:17.980Z,12.60
2019-05-26T20:09:47.983Z,12.60
2019-05-26T20:12:18.768Z,12.60
2019-05-26T20:14:48.782Z,12.60
2019-05-26T20:17:18.396Z,12.60
2019-05-26T20:19:48.295Z,12.70
2019-05-26T20:22:18.285Z,12.70
2019-05-26T20:24:47.970Z,12.70
2019-05-26T20:27:17.778Z,12.70
2019-05-26T20:29:47.514Z,12.70
2019-05-26T20:32:17.092Z,12.70
2019-05-26T20:34:46.960Z,12.70
2019-05-26T20:37:16.679Z,12.70
2019-05-26T20:39:46.525Z,12.70
2019-05-26T20:42:16.149Z,12.70
2019-05-26T20:44:47.001Z,12.70
2019-05-26T20:47:16.600Z,12.70
2019-05-26T20:49:46.490Z,12.70
2019-05-26T20:52:16.098Z,12.70
2019-05-26T20:54:45.925Z,12.70
2019-05-26T20:57:15.764Z,12.70
2019-05-26T20:59:45.561Z,12.60
2019-05-26T21:02:15.475Z,12.60
2019-05-26T21:04:45.134Z,12.60
2019-05-26T21:07:15.916Z,12.60
2019-05-26T21:09:45.675Z,12.60
2019-05-26T21:12:15.478Z,12.60
2019-05-26T21:14:45.347Z,12.60
2019-05-26T21:17:15.215Z,12.60
2019-05-26T21:19:45.180Z,12.60
2019-05-26T21:22:14.804Z,12.60
2019-05-26T21:24:44.733Z,12.60
2019-05-26T21:27:14.539Z,12.50
2019-05-26T21:29:44.300Z,12.50
2019-05-26T21:32:14.192Z,12.50
2019-05-26T21:34:43.854Z,12.50
2019-05-26T21:37:13.476Z,12.50
2019-05-26T21:39:43.132Z,12.50
2019-05-26T21:42:15.964Z,12.50
2019-05-26T21:44:44.315Z,12.50
2019-05-26T21:47:14.220Z,12.50
2019-05-26T21:49:44.020Z,12.50
2019-05-26T21:52:13.895Z,12.50
2019-05-26T21:54:43.763Z,12.50
2019-05-26T21:57:13.351Z,12.50
2019-05-26T21:59:43.221Z,12.50
2019-05-26T22:02:13.226Z,12.50
2019-05-26T22:04:44.155Z,12.50
2019-05-26T22:07:13.923Z,12.40
2019-05-26T22:09:43.702Z,12.50
2019-05-26T22:12:13.358Z,12.40
2019-05-26T22:14:43.071Z,12.40
2019-05-26T22:17:12.942Z,12.40
2019-05-26T22:19:42.963Z,12.40
2019-05-26T22:22:12.888Z,12.40
2019-05-26T22:24:42.840Z,12.40
2019-05-26T22:27:12.774Z,12.40
2019-05-26T22:29:42.756Z,12.40
2019-05-26T22:32:13.654Z,12.40
2019-05-26T22:34:43.674Z,12.40
2019-05-26T22:37:14.627Z,12.30
2019-05-26T22:39:44.583Z,12.30
2019-05-26T22:42:14.497Z,12.30
2019-05-26T22:44:44.455Z,12.30
2019-05-26T22:47:14.376Z,12.30
2019-05-26T22:49:44.290Z,12.30
2019-05-26T22:52:17.530Z,12.30
2019-05-26T22:54:45.768Z,12.30
2019-05-26T22:57:15.723Z,12.30
2019-05-26T22:59:45.664Z,12.30
2019-05-26T23:02:15.585Z,12.30
2019-05-26T23:04:45.527Z,12.30
2019-05-26T23:07:15.467Z,12.20
2019-05-26T23:09:45.435Z,12.20
2019-05-26T23:12:15.385Z,12.20
2019-05-26T23:14:45.298Z,12.20
2019-05-26T23:17:15.242Z,12.20
2019-05-26T23:19:45.232Z,12.20
2019-05-26T23:22:15.183Z,12.20
2019-05-26T23:24:44.966Z,12.20
2019-05-26T23:27:14.807Z,12.20
2019-05-26T23:29:44.660Z,12.20
2019-05-26T23:32:14.515Z,12.20
2019-05-26T23:34:44.256Z,12.10
2019-05-26T23:37:14.076Z,12.10
2019-05-26T23:39:43.852Z,12.20
2019-05-26T23:42:13.766Z,12.20
2019-05-26T23:44:44.610Z,12.20
2019-05-26T23:47:14.485Z,12.20
2019-05-26T23:49:44.237Z,12.20
2019-05-26T23:52:14.008Z,12.10
2019-05-26T23:54:43.890Z,12.10
2019-05-26T23:57:13.664Z,12.10
2019-05-26T23:59:43.396Z,12.10
